Airport Name : Hamburg Finkenwerder

Other Name : Hamburg Fink

ICAO : EDHI

IATA : XFW

FAA :

Latitude : 53.535886

Longitude : 9.837025

Country : Germany

Local Date and Time : 20 May 2024 07:34

 

TAF (Terminal Aerodrome Forecast)

 

METAR (METeorological Aerodrome Report)

EDHI 200520Z AUTO 05005KT 030V090 3400 // OVC003/// 13/12 Q1011

EDHI 200450Z AUTO 05006KT 3000 // OVC003/// 13/12 Q1011

EDHI 200420Z AUTO 05007KT 3000 // BKN004/// 13/12 Q1011

EDHI 200350Z AUTO 05006KT 4400 // FEW004/// SCT007/// 13/11 Q1011

EDHI 200320Z AUTO 05005KT 4200 // NCD 13/12 Q1010

EDHI 200250Z AUTO 06004KT 4800 // NCD 13/12 Q1010

EDHI 200220Z AUTO 07003KT 5000 // NCD 12/11 Q1010

EDHI 200150Z AUTO 06006KT 5000 // NCD 12/11 Q1010